Time;durP1;ratioP1;P1;durP2;ratioP2;P2;SDS_P1;SDS_P2;PMS_P1;PMS_P2;Temp;Humidity;BMP_temperature;BMP_pressure;BME280_temperature;BME280_humidity;BME280_pressure;Samples;Min_cycle;Max_cycle;Signal;HPM_P1;HPM_P2
2023/06/25 00:00:24;;;;;;;4.55;2.85;;;18.60;99.20;;;;;;5070730;28;20282;-58
2023/06/25 00:02:50;;;;;;;3.42;3.13;;;18.60;99.50;;;;;;5070902;28;20238;-60
2023/06/25 00:05:17;;;;;;;4.95;3.50;;;18.60;99.80;;;;;;5070726;28;20216;-59
2023/06/25 00:07:44;;;;;;;3.33;3.03;;;18.60;99.90;;;;;;5070315;28;20732;-60
2023/06/25 00:10:11;;;;;;;3.72;3.22;;;18.50;99.90;;;;;;5070529;28;20212;-60
2023/06/25 00:12:37;;;;;;;4.28;2.90;;;18.40;99.90;;;;;;5070728;28;20209;-60
2023/06/25 00:15:05;;;;;;;4.88;3.15;;;18.40;99.90;;;;;;5070472;28;20580;-60
2023/06/25 00:17:33;;;;;;;3.63;3.28;;;18.40;99.90;;;;;;5070660;28;20254;-60
2023/06/25 00:20:00;;;;;;;3.25;2.88;;;18.40;99.90;;;;;;5070430;28;20208;-59
2023/06/25 00:22:28;;;;;;;3.80;3.28;;;18.30;99.90;;;;;;5070437;28;20278;-60
2023/06/25 00:24:54;;;;;;;3.70;3.25;;;18.30;99.90;;;;;;5070513;28;20208;-60
2023/06/25 00:27:21;;;;;;;5.22;3.20;;;18.20;99.90;;;;;;5070256;28;20229;-59
2023/06/25 00:29:48;;;;;;;3.72;3.10;;;18.20;99.90;;;;;;5070577;28;20204;-60
2023/06/25 00:32:16;;;;;;;4.22;3.33;;;18.20;99.90;;;;;;5070133;28;20696;-59
2023/06/25 00:34:44;;;;;;;6.13;3.33;;;18.20;99.90;;;;;;5071707;28;20296;-59
2023/06/25 00:37:17;;;;;;;7.55;3.30;;;18.20;99.90;;;;;;5073348;28;20602;-59
2023/06/25 00:39:44;;;;;;;4.20;3.40;;;18.20;99.90;;;;;;5074030;28;20244;-60
2023/06/25 00:42:11;;;;;;;3.70;3.10;;;18.10;99.90;;;;;;5073762;28;20228;-60
2023/06/25 00:44:40;;;;;;;3.60;3.17;;;18.10;99.90;;;;;;5073712;28;20622;-61
2023/06/25 00:47:12;;;;;;;3.45;3.15;;;18.10;99.90;;;;;;5073474;28;20221;-60
2023/06/25 00:49:38;;;;;;;3.58;2.90;;;18.00;99.90;;;;;;5073614;28;20229;-59
2023/06/25 00:52:10;;;;;;;4.95;3.55;;;18.00;99.90;;;;;;5073635;28;20232;-60
2023/06/25 00:54:38;;;;;;;3.40;3.10;;;17.90;99.90;;;;;;5073420;28;20604;-61
2023/06/25 00:57:06;;;;;;;5.10;3.13;;;17.90;99.90;;;;;;5073332;28;20228;-59
2023/06/25 00:59:33;;;;;;;3.58;3.15;;;17.90;99.90;;;;;;5073077;28;20299;-60
2023/06/25 01:02:07;;;;;;;3.88;3.47;;;17.80;99.90;;;;;;5073185;28;20221;-59
2023/06/25 01:04:41;;;;;;;4.47;3.13;;;17.80;99.90;;;;;;5073121;28;20210;-59
2023/06/25 01:07:16;;;;;;;7.18;3.53;;;17.80;99.90;;;;;;5072808;28;20228;-59
2023/06/25 01:09:45;;;;;;;5.22;2.97;;;17.80;99.90;;;;;;5072900;28;20672;-60
2023/06/25 01:12:12;;;;;;;3.95;3.50;;;18.00;99.90;;;;;;5073004;28;20324;-59
2023/06/25 01:14:40;;;;;;;3.63;3.17;;;17.80;99.90;;;;;;5072761;28;20216;-60
2023/06/25 01:17:08;;;;;;;4.65;3.22;;;17.80;99.90;;;;;;5072792;28;20205;-60
2023/06/25 01:19:35;;;;;;;4.03;3.47;;;17.70;99.90;;;;;;5072842;28;20212;-59
2023/06/25 01:22:04;;;;;;;4.10;3.42;;;17.70;99.90;;;;;;5072751;28;20263;-59
2023/06/25 01:24:34;;;;;;;4.00;3.20;;;17.60;99.90;;;;;;5072679;28;20291;-59
2023/06/25 01:27:03;;;;;;;3.80;3.40;;;17.70;99.90;;;;;;5072455;28;20251;-59
2023/06/25 01:29:32;;;;;;;4.10;3.40;;;17.60;99.90;;;;;;5072629;28;20216;-59
2023/06/25 01:31:59;;;;;;;4.10;3.30;;;17.70;99.90;;;;;;5072899;28;20228;-59
2023/06/25 01:34:26;;;;;;;5.97;3.40;;;17.70;99.90;;;;;;5072565;28;20213;-60
2023/06/25 01:36:53;;;;;;;3.95;3.30;;;17.60;99.90;;;;;;5072085;28;20680;-59
2023/06/25 01:39:21;;;;;;;3.83;3.42;;;17.60;99.90;;;;;;5072559;28;20209;-59
2023/06/25 01:41:49;;;;;;;7.32;3.28;;;17.50;99.90;;;;;;5072271;28;20305;-60
2023/06/25 01:44:20;;;;;;;3.83;3.42;;;17.50;99.90;;;;;;5072354;28;20201;-58
2023/06/25 01:46:47;;;;;;;3.60;3.22;;;17.40;99.90;;;;;;5071819;28;20205;-59
2023/06/25 01:49:13;;;;;;;4.18;3.17;;;17.40;99.90;;;;;;5072444;28;20315;-59
2023/06/25 01:51:40;;;;;;;4.97;3.33;;;17.30;99.90;;;;;;5072207;28;20667;-58
2023/06/25 01:54:07;;;;;;;3.85;3.45;;;17.20;99.90;;;;;;5072049;28;20205;-58
2023/06/25 01:56:34;;;;;;;3.83;3.30;;;17.20;99.90;;;;;;5071664;28;20215;-58
2023/06/25 01:59:02;;;;;;;4.50;3.55;;;17.20;99.90;;;;;;5072355;28;20208;-59
2023/06/25 02:01:29;;;;;;;3.92;3.53;;;17.10;99.90;;;;;;5072374;28;20232;-59
2023/06/25 02:03:56;;;;;;;4.65;3.45;;;17.10;99.90;;;;;;5072155;28;20291;-59
2023/06/25 02:06:22;;;;;;;4.43;3.80;;;17.10;99.90;;;;;;5071711;28;20285;-59
2023/06/25 02:08:49;;;;;;;4.32;3.70;;;17.10;99.90;;;;;;5071655;28;20221;-59
2023/06/25 02:11:16;;;;;;;4.80;3.65;;;17.10;99.90;;;;;;5071427;28;20233;-58
2023/06/25 02:13:43;;;;;;;4.50;3.55;;;17.10;99.90;;;;;;5071521;28;20201;-59
2023/06/25 02:16:11;;;;;;;4.32;3.35;;;17.10;99.90;;;;;;5071763;28;20583;-59
2023/06/25 02:18:38;;;;;;;4.10;3.25;;;17.10;99.90;;;;;;5071766;28;20212;-58
2023/06/25 02:21:05;;;;;;;3.50;3.20;;;17.10;99.90;;;;;;5071753;28;20233;-59
2023/06/25 02:23:32;;;;;;;3.58;3.28;;;17.00;99.90;;;;;;5071863;28;20251;-60
2023/06/25 02:25:58;;;;;;;4.07;3.67;;;17.00;99.90;;;;;;5071620;28;20236;-59
2023/06/25 02:28:25;;;;;;;6.35;3.40;;;17.00;99.90;;;;;;5071678;28;20308;-59
2023/06/25 02:30:52;;;;;;;5.65;3.72;;;16.90;99.90;;;;;;5071203;28;20716;-59
2023/06/25 02:33:20;;;;;;;4.03;3.45;;;16.80;99.90;;;;;;5071142;28;20684;-58
2023/06/25 02:35:46;;;;;;;4.43;3.50;;;16.80;99.90;;;;;;5071005;28;20287;-59
2023/06/25 02:38:13;;;;;;;4.50;3.92;;;16.80;99.90;;;;;;5071021;28;20355;-60
2023/06/25 02:40:40;;;;;;;4.00;3.60;;;16.80;99.90;;;;;;5071402;28;20252;-59
2023/06/25 02:43:06;;;;;;;5.07;3.80;;;16.80;99.90;;;;;;5071313;28;20201;-59
2023/06/25 02:45:33;;;;;;;4.47;3.90;;;16.70;99.90;;;;;;5071152;28;20242;-60
2023/06/25 02:48:00;;;;;;;3.72;3.42;;;16.70;99.90;;;;;;5070898;28;20266;-60
2023/06/25 02:50:28;;;;;;;4.00;3.50;;;16.60;99.90;;;;;;5071093;28;20610;-60
2023/06/25 02:52:54;;;;;;;4.57;3.60;;;16.60;99.90;;;;;;5070921;28;20575;-59
2023/06/25 02:55:21;;;;;;;5.03;3.60;;;16.50;99.90;;;;;;5071260;28;20220;-59
2023/06/25 02:57:48;;;;;;;4.63;3.90;;;16.50;99.90;;;;;;5070301;28;20197;-60
2023/06/25 03:00:15;;;;;;;4.25;3.70;;;16.50;99.90;;;;;;5070961;28;20236;-59
2023/06/25 03:02:42;;;;;;;4.65;3.40;;;16.60;99.90;;;;;;5070879;28;20689;-60
2023/06/25 03:05:09;;;;;;;4.97;3.85;;;16.60;99.90;;;;;;5070822;28;20630;-60
2023/06/25 03:07:37;;;;;;;4.18;3.78;;;16.60;99.90;;;;;;5070862;28;20209;-61
2023/06/25 03:10:04;;;;;;;4.72;3.70;;;16.60;99.90;;;;;;5070753;28;20624;-60
2023/06/25 03:12:31;;;;;;;4.38;3.75;;;16.60;99.90;;;;;;5071086;28;20205;-59
2023/06/25 03:14:58;;;;;;;4.50;3.45;;;16.60;99.90;;;;;;5070977;28;20297;-61
2023/06/25 03:17:24;;;;;;;4.38;3.50;;;16.60;99.90;;;;;;5070556;28;20332;-60
2023/06/25 03:19:51;;;;;;;5.47;3.63;;;16.50;99.90;;;;;;5070809;28;20209;-60
2023/06/25 03:22:18;;;;;;;4.68;3.63;;;16.50;99.90;;;;;;5070812;28;20649;-60
2023/06/25 03:24:46;;;;;;;4.53;3.92;;;16.50;99.90;;;;;;5070949;28;20266;-59
2023/06/25 03:27:12;;;;;;;4.53;3.80;;;16.60;99.90;;;;;;5070459;28;20216;-59
2023/06/25 03:29:39;;;;;;;3.90;3.50;;;16.60;99.90;;;;;;5070596;28;20240;-59
2023/06/25 03:32:06;;;;;;;4.28;3.88;;;16.60;99.90;;;;;;5070638;28;20236;-60
2023/06/25 03:34:33;;;;;;;5.00;3.72;;;16.70;99.90;;;;;;5070929;28;20213;-60
2023/06/25 03:37:00;;;;;;;5.50;3.67;;;16.70;99.90;;;;;;5070731;28;20302;-59
2023/06/25 03:39:26;;;;;;;6.43;4.03;;;16.70;99.90;;;;;;5070666;28;20201;-61
2023/06/25 03:41:54;;;;;;;4.18;3.78;;;16.70;99.90;;;;;;5070512;28;20259;-60
2023/06/25 03:44:21;;;;;;;6.10;4.20;;;16.70;99.90;;;;;;5070790;28;20255;-60
2023/06/25 03:46:48;;;;;;;4.72;3.80;;;16.70;99.90;;;;;;5070274;28;20560;-59
2023/06/25 03:49:14;;;;;;;7.93;4.20;;;16.70;99.90;;;;;;5070750;28;20225;-60
2023/06/25 03:51:41;;;;;;;4.20;3.70;;;16.70;99.90;;;;;;5070790;28;20225;-59
2023/06/25 03:54:08;;;;;;;4.95;4.22;;;16.80;99.90;;;;;;5070605;28;20204;-59
2023/06/25 03:56:34;;;;;;;4.18;3.40;;;16.80;99.90;;;;;;5070288;28;20205;-59
2023/06/25 03:59:02;;;;;;;4.22;3.83;;;16.80;99.90;;;;;;5070565;28;20205;-59
2023/06/25 04:01:29;;;;;;;6.40;4.20;;;16.80;99.90;;;;;;5070259;28;20270;-58
2023/06/25 04:03:56;;;;;;;4.82;4.32;;;16.90;99.90;;;;;;5070735;28;20209;-58
2023/06/25 04:06:22;;;;;;;3.97;3.58;;;16.90;99.90;;;;;;5070362;28;20278;-58
2023/06/25 04:08:49;;;;;;;4.35;3.95;;;16.90;99.90;;;;;;5072164;28;20665;-61
2023/06/25 04:11:16;;;;;;;5.60;3.97;;;17.00;99.90;;;;;;5074003;28;20302;-60
2023/06/25 04:13:42;;;;;;;4.68;3.90;;;17.10;99.90;;;;;;5074197;28;20220;-58
2023/06/25 04:16:11;;;;;;;4.15;3.75;;;17.20;99.90;;;;;;5073764;28;20242;-57
2023/06/25 04:18:38;;;;;;;3.90;3.50;;;17.20;99.90;;;;;;5074244;28;20213;-59
2023/06/25 04:21:05;;;;;;;4.05;3.60;;;17.30;99.90;;;;;;5074133;28;20225;-58
2023/06/25 04:23:32;;;;;;;6.07;4.05;;;17.40;99.90;;;;;;5074032;28;20243;-59
2023/06/25 04:25:58;;;;;;;5.72;4.07;;;17.40;99.90;;;;;;5073628;28;20212;-58
2023/06/25 04:28:25;;;;;;;4.88;3.95;;;17.40;99.90;;;;;;5073796;28;20229;-58
2023/06/25 04:30:52;;;;;;;5.75;4.00;;;17.50;99.90;;;;;;5073549;28;20221;-60
2023/06/25 04:33:20;;;;;;;5.10;4.00;;;17.50;99.90;;;;;;5073745;28;20589;-60
2023/06/25 04:35:47;;;;;;;4.10;3.35;;;17.60;99.90;;;;;;5073445;28;20274;-58
2023/06/25 04:38:15;;;;;;;5.15;4.20;;;17.60;99.90;;;;;;5073846;28;20258;-59
2023/06/25 04:40:41;;;;;;;4.20;3.80;;;17.60;99.90;;;;;;5073534;28;20236;-58
2023/06/25 04:43:08;;;;;;;4.72;3.80;;;17.70;99.90;;;;;;5073278;28;20204;-59
2023/06/25 04:45:35;;;;;;;5.28;4.05;;;17.90;99.90;;;;;;5073504;28;20209;-59
2023/06/25 04:48:01;;;;;;;4.35;3.78;;;18.30;99.90;;;;;;5073305;28;20216;-58
2023/06/25 04:50:29;;;;;;;4.05;3.65;;;19.70;99.90;;;;;;5073443;28;20271;-58
2023/06/25 04:52:57;;;;;;;4.07;3.30;;;21.70;99.90;;;;;;5073345;28;20209;-59
2023/06/25 04:55:23;;;;;;;4.47;3.67;;;23.80;99.90;;;;;;5073053;28;20211;-59
2023/06/25 04:57:51;;;;;;;4.25;3.72;;;25.50;98.40;;;;;;5072859;28;20212;-60
2023/06/25 05:00:18;;;;;;;4.00;3.55;;;27.00;93.00;;;;;;5073366;28;20318;-60
2023/06/25 05:02:44;;;;;;;5.65;3.50;;;28.20;88.20;;;;;;5073295;28;20205;-61
2023/06/25 05:05:11;;;;;;;3.75;3.35;;;29.20;81.30;;;;;;5073381;28;20613;-61
2023/06/25 05:07:39;;;;;;;4.03;3.45;;;30.00;77.00;;;;;;5072760;28;20231;-60
2023/06/25 05:10:07;;;;;;;5.13;3.70;;;30.90;72.80;;;;;;5072629;28;20293;-60
2023/06/25 05:12:33;;;;;;;3.97;3.00;;;31.40;67.60;;;;;;5073080;28;20204;-60
2023/06/25 05:15:01;;;;;;;3.60;3.30;;;31.40;66.90;;;;;;5073158;28;20220;-61
2023/06/25 05:17:27;;;;;;;4.05;3.42;;;31.80;64.00;;;;;;5072744;28;20551;-60
2023/06/25 05:19:54;;;;;;;4.88;3.45;;;32.10;62.30;;;;;;5072085;28;20798;-61
2023/06/25 05:22:21;;;;;;;4.40;3.30;;;32.40;60.20;;;;;;5072865;28;20283;-63
2023/06/25 05:24:49;;;;;;;3.70;3.40;;;32.80;59.10;;;;;;5072640;28;20283;-60
2023/06/25 05:27:15;;;;;;;3.90;3.50;;;33.40;57.90;;;;;;5072898;28;20205;-62
2023/06/25 05:29:42;;;;;;;3.28;2.97;;;34.00;56.00;;;;;;5072762;28;20233;-61
2023/06/25 05:32:09;;;;;;;3.70;3.30;;;34.50;54.90;;;;;;5072725;28;20467;-61
2023/06/25 05:34:36;;;;;;;4.13;3.65;;;35.20;53.50;;;;;;5072872;28;20263;-61
2023/06/25 05:37:03;;;;;;;3.92;3.42;;;35.90;51.70;;;;;;5072776;28;20205;-61
2023/06/25 05:39:29;;;;;;;5.72;3.17;;;36.30;50.30;;;;;;5072720;28;20614;-61
2023/06/25 05:41:58;;;;;;;4.18;3.38;;;36.70;49.50;;;;;;5072465;28;20255;-60
2023/06/25 05:44:25;;;;;;;3.78;3.20;;;37.20;48.50;;;;;;5072661;28;20357;-60
2023/06/25 05:46:53;;;;;;;3.78;3.40;;;37.50;48.00;;;;;;5072198;28;20275;-61
2023/06/25 05:49:20;;;;;;;4.03;3.30;;;37.80;46.70;;;;;;5072424;28;20328;-61
2023/06/25 05:51:47;;;;;;;4.13;3.65;;;38.00;46.30;;;;;;5072232;28;20229;-60
2023/06/25 05:54:13;;;;;;;5.05;3.60;;;38.40;45.00;;;;;;5072122;28;20280;-60
2023/06/25 05:56:40;;;;;;;4.10;3.60;;;38.60;44.50;;;;;;5072267;28;20213;-60
2023/06/25 05:59:08;;;;;;;4.28;3.53;;;38.80;44.50;;;;;;5072532;28;20251;-60
2023/06/25 06:01:35;;;;;;;4.18;3.65;;;39.20;43.20;;;;;;5072274;28;20316;-60
2023/06/25 06:04:02;;;;;;;3.80;3.47;;;39.50;42.40;;;;;;5072296;28;20258;-62
2023/06/25 06:06:29;;;;;;;4.15;3.63;;;39.90;41.60;;;;;;5071905;28;20240;-60
2023/06/25 06:08:55;;;;;;;4.93;3.60;;;40.30;40.70;;;;;;5072560;28;20319;-60
2023/06/25 06:11:22;;;;;;;3.97;3.58;;;40.50;40.00;;;;;;5071874;28;20781;-61
2023/06/25 06:13:49;;;;;;;4.35;3.95;;;40.60;39.80;;;;;;5071902;28;20295;-60
2023/06/25 06:16:17;;;;;;;4.32;3.92;;;40.90;39.70;;;;;;5071658;28;20232;-60
2023/06/25 06:18:44;;;;;;;4.00;3.67;;;41.40;39.00;;;;;;5071868;28;20213;-59
2023/06/25 06:21:10;;;;;;;4.38;3.97;;;41.60;38.30;;;;;;5072241;28;20229;-61
2023/06/25 06:23:37;;;;;;;4.38;3.97;;;41.70;38.20;;;;;;5071695;28;20682;-61
2023/06/25 06:26:04;;;;;;;7.22;4.53;;;41.70;37.90;;;;;;5071699;28;20197;-60
2023/06/25 06:28:30;;;;;;;4.97;3.85;;;41.60;37.90;;;;;;5071732;28;20204;-61
2023/06/25 06:30:57;;;;;;;5.13;3.85;;;41.40;37.90;;;;;;5071854;28;20282;-61
2023/06/25 06:33:25;;;;;;;4.70;4.10;;;41.50;37.60;;;;;;5072074;28;20262;-60
2023/06/25 06:35:52;;;;;;;5.43;3.80;;;41.50;37.60;;;;;;5071143;28;20212;-60
2023/06/25 06:38:18;;;;;;;4.80;4.40;;;41.50;37.20;;;;;;5071566;28;20205;-61
2023/06/25 06:40:45;;;;;;;4.60;4.20;;;41.80;37.00;;;;;;5071358;28;20549;-61
2023/06/25 06:43:12;;;;;;;4.38;3.97;;;41.70;36.40;;;;;;5071547;28;20673;-62
2023/06/25 06:45:38;;;;;;;4.95;4.50;;;41.80;36.60;;;;;;5071296;28;20580;-64
2023/06/25 06:48:06;;;;;;;4.47;4.05;;;42.20;36.50;;;;;;5071123;28;20341;-62
2023/06/25 06:50:34;;;;;;;4.47;4.07;;;42.30;35.60;;;;;;5071461;28;20315;-62
2023/06/25 06:53:00;;;;;;;4.80;4.30;;;42.50;35.70;;;;;;5071015;28;20633;-60
2023/06/25 06:55:27;;;;;;;4.47;3.92;;;42.80;34.90;;;;;;5070984;28;20231;-61
2023/06/25 06:57:54;;;;;;;5.70;4.47;;;43.10;35.00;;;;;;5071025;28;20631;-61
2023/06/25 07:00:22;;;;;;;5.22;4.45;;;43.60;34.50;;;;;;5071189;28;20315;-59
2023/06/25 07:02:48;;;;;;;5.88;5.38;;;43.60;33.80;;;;;;5071128;28;20200;-61
2023/06/25 07:05:16;;;;;;;4.65;4.25;;;43.70;34.20;;;;;;5071059;28;20315;-61
2023/06/25 07:07:44;;;;;;;4.47;4.05;;;43.70;33.90;;;;;;5070951;28;20208;-60
2023/06/25 07:10:11;;;;;;;5.75;4.60;;;44.10;33.30;;;;;;5070819;28;20270;-61
2023/06/25 07:12:38;;;;;;;4.82;4.43;;;44.70;32.50;;;;;;5071645;28;20212;-63
2023/06/25 07:15:05;;;;;;;5.53;4.80;;;45.30;32.10;;;;;;5071242;28;20287;-63
2023/06/25 07:17:32;;;;;;;4.57;4.18;;;45.30;31.70;;;;;;5070670;28;20281;-62
2023/06/25 07:19:58;;;;;;;4.63;4.22;;;45.20;31.60;;;;;;5070934;28;20303;-62
2023/06/25 07:22:25;;;;;;;4.75;4.35;;;45.30;31.00;;;;;;5070928;28;20600;-62
2023/06/25 07:24:53;;;;;;;6.82;4.57;;;45.30;31.10;;;;;;5069605;28;20261;-59
2023/06/25 07:27:20;;;;;;;6.18;4.55;;;45.30;31.40;;;;;;5069921;28;20250;-63
2023/06/25 07:29:47;;;;;;;5.13;4.50;;;45.50;30.80;;;;;;5071697;28;20223;-64
2023/06/25 07:32:13;;;;;;;5.13;4.72;;;46.10;30.30;;;;;;5070852;28;20301;-62
2023/06/25 07:34:40;;;;;;;5.93;4.43;;;46.90;29.70;;;;;;5070652;28;20208;-61
2023/06/25 07:37:07;;;;;;;6.40;4.43;;;47.40;29.40;;;;;;5070251;28;20204;-62
2023/06/25 07:39:34;;;;;;;4.85;4.45;;;47.70;29.20;;;;;;5070946;28;20287;-62
2023/06/25 07:42:02;;;;;;;4.90;4.40;;;47.40;28.80;;;;;;5070763;28;20265;-62
2023/06/25 07:44:29;;;;;;;5.15;4.75;;;47.30;29.20;;;;;;5073677;28;20203;-62
2023/06/25 07:46:55;;;;;;;4.72;4.30;;;47.70;29.10;;;;;;5074556;28;20564;-62
2023/06/25 07:49:22;;;;;;;5.13;4.40;;;48.30;28.60;;;;;;5075018;28;20224;-64
2023/06/25 07:51:51;;;;;;;5.60;5.10;;;48.60;28.10;;;;;;5074528;28;20224;-64
2023/06/25 07:54:18;;;;;;;4.88;4.40;;;48.70;28.00;;;;;;5074478;28;20208;-64
2023/06/25 07:56:45;;;;;;;5.38;4.30;;;48.40;27.70;;;;;;5074165;28;20564;-64
2023/06/25 07:59:14;;;;;;;6.63;4.60;;;48.40;27.80;;;;;;5074266;28;20622;-60
2023/06/25 08:01:41;;;;;;;5.00;4.60;;;48.30;27.50;;;;;;5074547;28;20285;-62
2023/06/25 08:04:08;;;;;;;4.95;4.47;;;48.40;28.00;;;;;;5074313;28;20208;-61
2023/06/25 08:06:35;;;;;;;5.78;5.22;;;48.60;27.70;;;;;;5073531;28;20574;-63
2023/06/25 08:09:02;;;;;;;5.53;4.38;;;48.70;27.40;;;;;;5074316;28;20674;-61
2023/06/25 08:11:29;;;;;;;4.95;4.53;;;48.90;26.80;;;;;;5073884;28;20243;-63
2023/06/25 08:13:56;;;;;;;5.70;4.68;;;48.80;26.90;;;;;;5074230;28;20208;-63
2023/06/25 08:16:24;;;;;;;5.78;5.18;;;48.10;26.80;;;;;;5074254;28;20204;-63
2023/06/25 08:18:51;;;;;;;5.55;4.38;;;47.70;27.40;;;;;;5074096;28;20216;-62
2023/06/25 08:21:18;;;;;;;5.22;4.72;;;47.30;27.40;;;;;;5073768;28;20616;-61
2023/06/25 08:23:45;;;;;;;5.28;4.78;;;47.40;27.10;;;;;;5072979;28;20208;-62
2023/06/25 08:26:15;;;;;;;5.00;4.60;;;47.40;27.20;;;;;;5069586;28;20221;-60
2023/06/25 08:28:42;;;;;;;4.82;4.38;;;47.50;27.20;;;;;;5074389;28;20203;-63
2023/06/25 08:31:09;;;;;;;5.28;4.78;;;46.70;27.30;;;;;;5074071;28;20311;-63
2023/06/25 08:33:37;;;;;;;5.10;4.60;;;46.30;27.30;;;;;;5073899;28;20200;-65
2023/06/25 08:36:04;;;;;;;5.47;4.97;;;46.00;27.60;;;;;;5073000;28;20212;-63
2023/06/25 08:38:32;;;;;;;5.38;4.90;;;45.70;27.50;;;;;;5073722;28;20211;-64
2023/06/25 08:41:00;;;;;;;5.97;5.30;;;45.60;27.60;;;;;;5074022;28;20236;-61
2023/06/25 08:43:26;;;;;;;6.43;5.85;;;44.60;28.90;;;;;;5073684;28;20215;-64
2023/06/25 08:45:53;;;;;;;5.10;4.65;;;44.10;28.60;;;;;;5073773;28;20254;-64
2023/06/25 08:48:22;;;;;;;5.55;4.88;;;44.00;28.30;;;;;;5073273;28;20208;-61
2023/06/25 08:50:56;;;;;;;5.10;4.60;;;43.50;28.30;;;;;;5073729;28;20772;-62
2023/06/25 08:53:25;;;;;;;5.93;5.35;;;42.70;28.90;;;;;;5074123;28;20211;-61
2023/06/25 08:55:54;;;;;;;4.88;4.38;;;41.30;29.30;;;;;;5072599;28;20220;-59
2023/06/25 08:58:21;;;;;;;4.78;4.38;;;39.60;29.80;;;;;;5075039;28;20677;-63
2023/06/25 09:00:48;;;;;;;6.60;5.40;;;37.70;32.10;;;;;;5074436;28;20240;-60
2023/06/25 09:03:14;;;;;;;6.22;5.40;;;36.00;35.10;;;;;;5074284;28;20201;-64
2023/06/25 09:05:53;;;;;;;5.55;5.05;;;34.50;36.50;;;;;;5073279;28;20204;-63
2023/06/25 09:08:20;;;;;;;6.20;5.60;;;33.40;36.70;;;;;;5074937;28;20645;-63
2023/06/25 09:10:50;;;;;;;5.95;5.45;;;32.50;38.10;;;;;;5073647;28;20275;-63
2023/06/25 09:13:21;;;;;;;5.55;4.93;;;31.50;40.50;;;;;;5073631;28;20583;-63
2023/06/25 09:15:48;;;;;;;5.65;4.82;;;30.80;39.60;;;;;;5073262;28;20209;-60
2023/06/25 09:18:15;;;;;;;5.50;4.97;;;30.30;39.70;;;;;;5072929;28;20292;-60
2023/06/25 09:20:47;;;;;;;7.72;5.32;;;30.10;41.40;;;;;;5073463;28;20228;-60
2023/06/25 09:23:19;;;;;;;5.35;4.68;;;29.70;41.00;;;;;;5073618;28;20297;-60
2023/06/25 09:25:46;;;;;;;6.57;5.25;;;29.60;41.80;;;;;;5072399;28;20209;-59
2023/06/25 09:28:13;;;;;;;5.43;4.93;;;29.30;42.60;;;;;;5073287;28;20212;-58
2023/06/25 09:30:40;;;;;;;4.80;4.30;;;29.00;41.20;;;;;;5072993;28;20221;-59
2023/06/25 09:33:08;;;;;;;5.40;4.53;;;28.90;40.10;;;;;;5073180;28;20250;-57
2023/06/25 09:35:35;;;;;;;5.43;4.90;;;28.80;40.40;;;;;;5073108;28;20212;-60
2023/06/25 09:38:02;;;;;;;7.22;5.03;;;28.70;42.00;;;;;;5072348;28;20303;-58
2023/06/25 09:40:30;;;;;;;5.20;4.70;;;28.70;41.10;;;;;;5072811;28;20263;-60
2023/06/25 09:42:58;;;;;;;4.72;4.32;;;28.80;41.20;;;;;;5072775;28;20687;-60
2023/06/25 09:45:26;;;;;;;5.35;4.80;;;28.80;41.10;;;;;;5072962;28;20201;-61
2023/06/25 09:47:55;;;;;;;5.28;4.60;;;29.00;40.80;;;;;;5072331;28;20201;-61
2023/06/25 09:50:25;;;;;;;6.60;5.28;;;29.10;40.80;;;;;;5072714;28;20750;-58
2023/06/25 09:52:55;;;;;;;4.82;4.32;;;29.20;41.20;;;;;;5072919;28;20208;-57
2023/06/25 09:55:22;;;;;;;5.40;4.80;;;29.20;40.90;;;;;;5072946;28;20209;-59
2023/06/25 09:57:50;;;;;;;4.80;4.05;;;29.20;41.30;;;;;;5072244;28;20212;-60
2023/06/25 10:00:20;;;;;;;6.00;4.65;;;29.30;40.50;;;;;;5072648;28;20229;-59
2023/06/25 10:02:47;;;;;;;5.28;4.68;;;29.20;40.60;;;;;;5072313;28;20565;-58
2023/06/25 10:05:14;;;;;;;5.00;4.22;;;29.10;40.60;;;;;;5072283;28;20205;-58
2023/06/25 10:07:41;;;;;;;4.78;4.28;;;29.20;40.70;;;;;;5072107;28;20208;-58
2023/06/25 10:10:19;;;;;;;5.20;4.32;;;29.40;40.60;;;;;;5072099;28;20660;-59
2023/06/25 10:12:45;;;;;;;5.65;4.25;;;29.60;40.00;;;;;;5072474;28;20204;-59
2023/06/25 10:15:13;;;;;;;4.78;3.97;;;29.80;39.80;;;;;;5072193;28;20208;-58
2023/06/25 10:17:46;;;;;;;5.63;4.90;;;29.90;41.10;;;;;;5071608;28;20212;-58
2023/06/25 10:20:13;;;;;;;5.80;4.30;;;29.90;40.00;;;;;;5072097;28;20224;-57
2023/06/25 10:22:43;;;;;;;5.40;4.18;;;29.80;40.20;;;;;;5072155;28;20205;-58
2023/06/25 10:25:10;;;;;;;5.97;4.07;;;29.80;39.50;;;;;;5071505;28;20568;-58
2023/06/25 10:27:37;;;;;;;5.18;4.65;;;29.90;38.30;;;;;;5072155;28;20205;-59
2023/06/25 10:30:15;;;;;;;6.53;4.13;;;29.90;38.90;;;;;;5072394;28;20641;-60
2023/06/25 10:32:42;;;;;;;5.40;3.80;;;29.80;38.60;;;;;;5073029;28;20763;-60
2023/06/25 10:35:17;;;;;;;5.30;4.18;;;29.90;38.90;;;;;;5072043;28;20212;-59
2023/06/25 10:37:44;;;;;;;4.68;4.00;;;30.10;39.10;;;;;;5071691;28;20231;-60
2023/06/25 10:40:11;;;;;;;5.05;4.47;;;30.20;39.20;;;;;;5071645;28;20421;-59
2023/06/25 10:42:38;;;;;;;4.45;4.05;;;30.20;40.00;;;;;;5071684;28;20613;-58
2023/06/25 10:45:06;;;;;;;4.47;4.00;;;30.30;39.80;;;;;;5071644;28;20353;-60
2023/06/25 10:47:35;;;;;;;5.20;4.70;;;30.40;40.00;;;;;;5071278;28;20213;-59
2023/06/25 10:50:01;;;;;;;5.18;4.25;;;30.50;39.60;;;;;;5070995;28;20295;-59
2023/06/25 10:52:28;;;;;;;5.38;4.25;;;30.70;39.40;;;;;;5071729;28;20238;-58
2023/06/25 10:54:55;;;;;;;4.82;4.32;;;30.90;38.90;;;;;;5070918;28;20611;-58
2023/06/25 10:57:22;;;;;;;4.95;3.75;;;30.80;38.50;;;;;;5070815;28;20296;-60
2023/06/25 10:59:50;;;;;;;5.90;4.15;;;30.70;39.40;;;;;;5071362;28;20586;-59
2023/06/25 11:02:19;;;;;;;5.93;4.20;;;30.60;39.90;;;;;;5070523;28;20221;-59
2023/06/25 11:04:53;;;;;;;4.47;3.83;;;30.40;40.50;;;;;;5070856;28;20663;-59
2023/06/25 11:07:20;;;;;;;4.72;4.22;;;30.50;40.60;;;;;;5071357;28;20212;-59
2023/06/25 11:09:50;;;;;;;5.10;4.13;;;30.60;40.90;;;;;;5071158;28;20315;-59
2023/06/25 11:12:17;;;;;;;5.15;4.05;;;30.80;41.20;;;;;;5070890;28;20229;-59
2023/06/25 11:14:44;;;;;;;4.65;4.05;;;30.90;42.50;;;;;;5070448;28;20204;-61
2023/06/25 11:17:10;;;;;;;5.13;4.63;;;30.80;42.60;;;;;;5070571;28;20231;-60
2023/06/25 11:19:37;;;;;;;4.90;4.40;;;30.60;43.00;;;;;;5070673;28;20209;-59
2023/06/25 11:22:08;;;;;;;5.95;4.38;;;30.60;43.90;;;;;;5070778;28;20232;-59
2023/06/25 11:24:35;;;;;;;7.25;4.50;;;30.70;42.20;;;;;;5071052;28;20224;-59
2023/06/25 11:27:02;;;;;;;4.05;3.65;;;30.80;42.30;;;;;;5070514;28;20258;-59
2023/06/25 11:29:37;;;;;;;6.18;5.07;;;31.00;41.70;;;;;;5070560;28;20205;-59
2023/06/25 11:32:05;;;;;;;4.68;4.28;;;31.00;41.50;;;;;;5070874;28;20263;-59
2023/06/25 11:34:33;;;;;;;5.20;4.47;;;30.90;41.30;;;;;;5070977;28;20244;-60
2023/06/25 11:37:11;;;;;;;4.68;4.28;;;30.90;41.80;;;;;;5070012;28;20295;-59
2023/06/25 11:39:47;;;;;;;4.20;3.80;;;31.00;41.00;;;;;;5070340;28;20300;-59
2023/06/25 11:42:15;;;;;;;5.05;4.55;;;31.30;40.50;;;;;;5070732;28;20232;-59
2023/06/25 11:44:42;;;;;;;3.83;3.45;;;31.30;42.60;;;;;;5070580;28;20223;-59
2023/06/25 11:47:11;;;;;;;4.93;4.38;;;31.30;42.60;;;;;;5070205;28;20673;-59
2023/06/25 11:49:38;;;;;;;4.75;4.22;;;31.20;42.70;;;;;;5070665;28;20205;-59
2023/06/25 11:52:05;;;;;;;4.15;3.75;;;31.30;42.40;;;;;;5070368;28;20227;-58
2023/06/25 11:54:33;;;;;;;4.03;3.63;;;31.30;42.00;;;;;;5070301;28;20258;-59
2023/06/25 11:57:00;;;;;;;4.22;3.83;;;31.30;41.90;;;;;;5070452;28;20232;-59
2023/06/25 11:59:27;;;;;;;5.13;4.18;;;31.30;42.50;;;;;;5071257;28;20200;-59
2023/06/25 12:01:53;;;;;;;5.60;4.20;;;31.30;42.10;;;;;;5071193;28;20247;-60
2023/06/25 12:04:20;;;;;;;4.72;4.22;;;31.40;42.20;;;;;;5070963;28;20285;-61
2023/06/25 12:06:47;;;;;;;5.90;4.32;;;31.50;42.30;;;;;;5070769;28;20266;-60
2023/06/25 12:09:13;;;;;;;5.63;3.88;;;31.60;42.20;;;;;;5070959;28;20213;-60
2023/06/25 12:11:42;;;;;;;5.10;3.95;;;31.50;41.90;;;;;;5070733;28;20239;-61
2023/06/25 12:14:09;;;;;;;4.03;3.63;;;31.40;42.10;;;;;;5070750;28;20209;-60
2023/06/25 12:16:36;;;;;;;5.20;3.90;;;31.30;42.20;;;;;;5070314;28;20673;-60
2023/06/25 12:19:03;;;;;;;4.63;3.78;;;31.20;42.70;;;;;;5070327;28;20687;-60
2023/06/25 12:21:30;;;;;;;4.20;3.80;;;31.10;42.60;;;;;;5070154;28;20711;-61
2023/06/25 12:23:57;;;;;;;4.38;3.97;;;31.10;42.60;;;;;;5070847;28;20661;-60
2023/06/25 12:26:24;;;;;;;4.20;3.80;;;31.10;42.70;;;;;;5070107;28;20205;-57
2023/06/25 12:28:52;;;;;;;5.80;3.95;;;31.20;42.20;;;;;;5070626;28;20588;-57
2023/06/25 12:31:18;;;;;;;4.30;3.63;;;31.20;42.00;;;;;;5074017;28;20701;-58
2023/06/25 12:33:45;;;;;;;4.47;4.03;;;31.20;42.10;;;;;;5074296;28;20209;-58
2023/06/25 12:36:12;;;;;;;4.40;3.83;;;31.30;42.60;;;;;;5073638;28;20677;-58
2023/06/25 12:38:39;;;;;;;4.57;3.70;;;31.30;41.70;;;;;;5073969;28;20255;-59
2023/06/25 12:41:06;;;;;;;4.25;3.85;;;31.40;41.60;;;;;;5073960;28;20250;-58
2023/06/25 12:43:32;;;;;;;4.55;4.10;;;31.40;41.40;;;;;;5073737;28;20208;-58
2023/06/25 12:46:01;;;;;;;3.90;3.50;;;31.30;41.20;;;;;;5073548;28;20216;-58
2023/06/25 12:48:28;;;;;;;5.13;3.80;;;31.40;41.30;;;;;;5073547;28;20243;-58